Time;durP1;ratioP1;P1;durP2;ratioP2;P2;SDS_P1;SDS_P2;PMS_P1;PMS_P2;Temp;Humidity;BMP_temperature;BMP_pressure;BME280_temperature;BME280_humidity;BME280_pressure;Samples;Min_cycle;Max_cycle;Signal;HPM_P1;HPM_P2
2023/01/25 00:01:29;;;;;;;23.27;13.50;;;7.20;47.90;;;;;;5031932;28;20424;-51
2023/01/25 00:03:54;;;;;;;19.63;13.10;;;7.10;47.80;;;;;;5032119;28;20166;-52
2023/01/25 00:06:20;;;;;;;29.87;14.47;;;7.10;47.80;;;;;;5032024;28;20174;-51
2023/01/25 00:08:52;;;;;;;23.27;12.90;;;7.10;47.90;;;;;;5032006;28;20530;-51
2023/01/25 00:11:19;;;;;;;26.13;14.07;;;7.10;47.80;;;;;;5031928;28;20201;-51
2023/01/25 00:13:44;;;;;;;25.63;14.27;;;7.10;47.80;;;;;;5032097;28;20188;-51
2023/01/25 00:16:10;;;;;;;22.37;13.43;;;7.10;47.80;;;;;;5031854;28;20198;-52
2023/01/25 00:18:36;;;;;;;21.53;13.30;;;7.00;47.80;;;;;;5032244;28;20459;-51
2023/01/25 00:21:23;;;;;;;24.73;14.33;;;7.00;47.80;;;;;;5031640;28;20209;-51
2023/01/25 00:23:49;;;;;;;22.88;12.82;;;7.00;47.80;;;;;;5031791;28;20172;-51
2023/01/25 00:26:16;;;;;;;24.52;13.35;;;7.00;47.90;;;;;;5031754;28;20268;-51
2023/01/25 00:28:42;;;;;;;20.17;11.63;;;7.00;48.00;;;;;;5031711;28;20178;-51
2023/01/25 00:31:14;;;;;;;21.67;13.60;;;7.00;48.00;;;;;;5032056;28;20209;-50
2023/01/25 00:33:55;;;;;;;21.17;13.15;;;7.00;48.00;;;;;;5031857;28;20409;-50
2023/01/25 00:36:36;;;;;;;25.17;13.25;;;7.00;47.80;;;;;;5031428;28;20212;-50
2023/01/25 00:39:03;;;;;;;26.95;15.23;;;7.00;47.90;;;;;;5031930;28;20174;-50
2023/01/25 00:41:28;;;;;;;22.25;13.57;;;7.00;47.80;;;;;;5031559;28;20255;-50
2023/01/25 00:43:54;;;;;;;21.07;13.87;;;7.00;47.80;;;;;;5031585;28;20170;-51
2023/01/25 00:46:20;;;;;;;22.57;12.63;;;6.90;47.80;;;;;;5031393;28;20228;-50
2023/01/25 00:48:46;;;;;;;21.93;13.77;;;6.90;47.90;;;;;;5031478;28;20504;-50
2023/01/25 00:51:12;;;;;;;23.97;13.63;;;6.90;47.80;;;;;;5031740;28;20285;-50
2023/01/25 00:53:38;;;;;;;24.85;13.95;;;7.00;47.80;;;;;;5033490;28;20194;-50
2023/01/25 00:56:04;;;;;;;20.03;12.20;;;6.90;47.80;;;;;;5035177;28;20198;-50
2023/01/25 00:58:29;;;;;;;23.80;12.20;;;6.90;47.70;;;;;;5035225;28;20829;-50
2023/01/25 01:00:55;;;;;;;21.23;12.47;;;6.90;47.80;;;;;;5035083;28;20466;-51
2023/01/25 01:03:22;;;;;;;22.10;13.65;;;6.90;47.80;;;;;;5035083;28;20224;-50
2023/01/25 01:05:47;;;;;;;25.33;12.73;;;6.90;47.80;;;;;;5035090;28;20205;-50
2023/01/25 01:08:14;;;;;;;18.87;12.33;;;6.90;47.80;;;;;;5035265;28;20206;-50
2023/01/25 01:10:40;;;;;;;24.52;16.33;;;6.90;47.80;;;;;;5035055;28;20416;-50
2023/01/25 01:13:07;;;;;;;19.63;11.98;;;6.90;47.90;;;;;;5034924;28;20178;-50
2023/01/25 01:15:35;;;;;;;26.80;13.40;;;6.90;48.00;;;;;;5034510;28;20677;-51
2023/01/25 01:18:02;;;;;;;29.08;12.38;;;6.90;48.00;;;;;;5034621;28;20189;-50
2023/01/25 01:20:28;;;;;;;18.70;12.60;;;6.80;48.00;;;;;;5035053;28;20177;-50
2023/01/25 01:22:56;;;;;;;21.13;12.27;;;6.90;47.90;;;;;;5034603;28;20189;-50
2023/01/25 01:25:22;;;;;;;18.83;11.27;;;6.90;48.00;;;;;;5034394;28;20486;-50
2023/01/25 01:27:48;;;;;;;17.97;10.73;;;6.90;47.90;;;;;;5034904;28;20194;-49
2023/01/25 01:30:14;;;;;;;18.77;10.80;;;6.90;47.90;;;;;;5034521;28;20228;-50
2023/01/25 01:32:39;;;;;;;17.13;10.97;;;7.00;47.90;;;;;;5034350;28;20205;-50
2023/01/25 01:35:06;;;;;;;16.97;10.97;;;6.90;47.80;;;;;;5034199;28;20413;-50
2023/01/25 01:37:31;;;;;;;19.25;10.93;;;6.90;47.90;;;;;;5034566;28;20180;-50
2023/01/25 01:39:57;;;;;;;20.70;12.67;;;7.00;47.80;;;;;;5034345;28;20174;-50
2023/01/25 01:42:23;;;;;;;19.80;11.03;;;6.90;47.70;;;;;;5034657;28;20189;-50
2023/01/25 01:44:53;;;;;;;22.10;12.50;;;7.00;47.80;;;;;;5034259;28;20405;-50
2023/01/25 01:47:27;;;;;;;17.52;9.85;;;6.90;47.40;;;;;;5034204;28;20257;-50
2023/01/25 01:50:01;;;;;;;19.63;11.25;;;6.90;47.40;;;;;;5034494;28;20169;-50
2023/01/25 01:52:31;;;;;;;16.10;10.65;;;6.90;47.60;;;;;;5034119;28;20194;-49
2023/01/25 01:55:11;;;;;;;23.27;11.95;;;6.90;47.80;;;;;;5034162;28;20197;-50
2023/01/25 01:57:42;;;;;;;14.65;10.07;;;7.00;47.80;;;;;;5033993;28;20574;-50
2023/01/25 02:00:16;;;;;;;24.05;12.02;;;6.90;47.80;;;;;;5034030;28;20170;-50
2023/01/25 02:02:42;;;;;;;14.80;9.75;;;7.00;47.80;;;;;;5034151;28;20194;-50
2023/01/25 02:05:16;;;;;;;23.47;11.40;;;7.00;47.70;;;;;;5033491;28;20274;-50
2023/01/25 02:07:45;;;;;;;16.90;10.45;;;7.00;47.60;;;;;;5033891;28;20404;-50
2023/01/25 02:10:12;;;;;;;15.23;9.73;;;7.00;47.50;;;;;;5033801;28;20174;-50
2023/01/25 02:12:39;;;;;;;20.35;9.90;;;7.00;47.40;;;;;;5033642;28;20724;-49
2023/01/25 02:15:05;;;;;;;23.35;10.95;;;7.00;47.40;;;;;;5033567;28;20182;-50
2023/01/25 02:17:34;;;;;;;20.15;10.75;;;7.00;47.30;;;;;;5033893;28;20170;-50
2023/01/25 02:20:06;;;;;;;15.52;10.20;;;7.00;47.30;;;;;;5033626;28;20562;-50
2023/01/25 02:22:47;;;;;;;16.27;10.50;;;7.00;47.20;;;;;;5033380;28;20212;-50
2023/01/25 02:25:14;;;;;;;16.67;10.75;;;6.90;47.20;;;;;;5033401;28;20618;-50
2023/01/25 02:27:45;;;;;;;14.95;10.00;;;6.90;47.30;;;;;;5033542;28;20162;-50
2023/01/25 02:30:11;;;;;;;12.77;10.40;;;6.80;47.30;;;;;;5033461;28;20216;-50
2023/01/25 02:32:37;;;;;;;15.80;10.50;;;6.80;47.40;;;;;;5033374;28;20194;-50
2023/01/25 02:35:04;;;;;;;17.50;11.10;;;6.80;47.50;;;;;;5033047;28;20408;-50
2023/01/25 02:37:30;;;;;;;17.35;10.48;;;6.80;47.50;;;;;;5033312;28;20189;-50
2023/01/25 02:39:55;;;;;;;22.13;10.73;;;6.80;47.50;;;;;;5033445;28;20209;-50
2023/01/25 02:42:21;;;;;;;19.57;12.30;;;6.80;47.40;;;;;;5033394;28;20456;-50
2023/01/25 02:44:49;;;;;;;17.07;11.20;;;6.90;47.50;;;;;;5033052;28;20533;-51
2023/01/25 02:47:15;;;;;;;15.85;11.10;;;6.90;47.60;;;;;;5033360;28;20213;-51
2023/01/25 02:49:40;;;;;;;19.40;11.20;;;6.90;47.50;;;;;;5033285;28;20210;-50
2023/01/25 02:52:06;;;;;;;16.83;11.93;;;6.90;47.50;;;;;;5033247;28;20202;-51
2023/01/25 02:54:32;;;;;;;17.80;10.77;;;6.90;47.40;;;;;;5032982;28;20170;-52
2023/01/25 02:56:57;;;;;;;16.63;10.17;;;6.90;47.40;;;;;;5032983;28;20842;-51
2023/01/25 02:59:23;;;;;;;14.70;10.50;;;6.90;47.50;;;;;;5033163;28;20174;-51
2023/01/25 03:01:49;;;;;;;18.20;11.93;;;6.90;47.50;;;;;;5032872;28;20220;-51
2023/01/25 03:04:15;;;;;;;18.48;12.30;;;6.90;47.50;;;;;;5032620;28;20214;-51
2023/01/25 03:06:41;;;;;;;19.50;11.60;;;6.90;47.50;;;;;;5032634;28;20257;-51
2023/01/25 03:09:09;;;;;;;17.85;10.60;;;6.90;47.50;;;;;;5032900;28;20169;-51
2023/01/25 03:11:35;;;;;;;22.88;12.20;;;6.90;47.50;;;;;;5032607;28;20228;-51
2023/01/25 03:14:01;;;;;;;15.98;11.02;;;6.90;47.40;;;;;;5032508;28;20650;-51
2023/01/25 03:16:29;;;;;;;18.53;11.77;;;7.00;47.30;;;;;;5031606;28;20210;-50
2023/01/25 03:18:55;;;;;;;17.40;11.35;;;7.00;47.10;;;;;;5032460;28;20170;-51
2023/01/25 03:21:21;;;;;;;21.53;11.93;;;6.90;47.10;;;;;;5032630;28;20236;-51
2023/01/25 03:23:53;;;;;;;18.38;11.70;;;6.90;47.30;;;;;;5032600;28;20412;-51
2023/01/25 03:26:21;;;;;;;19.40;13.32;;;6.90;47.30;;;;;;5032545;28;20228;-51
2023/01/25 03:28:46;;;;;;;19.00;13.05;;;6.90;47.40;;;;;;5032335;28;20776;-51
2023/01/25 03:31:14;;;;;;;18.90;12.50;;;7.00;47.40;;;;;;5032318;28;20197;-51
2023/01/25 03:33:41;;;;;;;18.48;11.38;;;6.90;47.40;;;;;;5032515;28;20414;-51
2023/01/25 03:36:08;;;;;;;18.77;11.95;;;6.90;47.30;;;;;;5032008;28;20281;-51
2023/01/25 03:38:34;;;;;;;18.88;11.07;;;6.90;47.30;;;;;;5032176;28;20656;-52
2023/01/25 03:41:00;;;;;;;21.90;13.40;;;7.00;47.10;;;;;;5032266;28;20197;-51
2023/01/25 03:43:26;;;;;;;21.80;12.93;;;6.90;47.20;;;;;;5032445;28;20475;-51
2023/01/25 03:45:57;;;;;;;21.77;14.17;;;6.90;47.10;;;;;;5032040;28;20642;-51
2023/01/25 03:48:23;;;;;;;20.45;13.88;;;6.90;47.20;;;;;;5032474;28;20401;-51
2023/01/25 03:50:51;;;;;;;18.45;12.13;;;6.90;48.00;;;;;;5032186;28;20593;-50
2023/01/25 03:53:35;;;;;;;19.23;11.80;;;6.90;47.30;;;;;;5032126;28;20162;-50
2023/01/25 03:56:10;;;;;;;22.60;12.27;;;6.80;47.30;;;;;;5031864;28;20206;-51
2023/01/25 03:58:38;;;;;;;22.98;13.70;;;6.90;47.30;;;;;;5031949;28;20637;-50
2023/01/25 04:01:05;;;;;;;19.40;12.35;;;6.90;47.30;;;;;;5031887;28;20198;-50
2023/01/25 04:03:31;;;;;;;21.58;12.40;;;6.90;47.40;;;;;;5032271;28;20189;-51
2023/01/25 04:05:57;;;;;;;19.77;12.30;;;6.90;47.50;;;;;;5031932;28;20550;-50
2023/01/25 04:08:23;;;;;;;20.15;13.40;;;6.90;47.40;;;;;;5032040;28;20182;-50
2023/01/25 04:11:08;;;;;;;20.85;11.57;;;6.90;47.30;;;;;;5031860;28;21021;-51
2023/01/25 04:13:35;;;;;;;22.75;13.60;;;6.90;47.30;;;;;;5031880;28;20176;-50
2023/01/25 04:16:02;;;;;;;20.63;12.43;;;6.90;47.30;;;;;;5031824;28;20210;-51
2023/01/25 04:18:28;;;;;;;21.92;12.55;;;6.90;47.40;;;;;;5031867;28;20173;-51
2023/01/25 04:20:55;;;;;;;23.40;12.77;;;6.80;47.40;;;;;;5031856;28;20205;-50
2023/01/25 04:23:22;;;;;;;22.85;13.73;;;6.80;47.40;;;;;;5031901;28;20257;-51
2023/01/25 04:26:04;;;;;;;18.40;10.60;;;6.80;47.40;;;;;;5031561;28;20567;-51
2023/01/25 04:28:31;;;;;;;21.25;12.75;;;6.90;47.50;;;;;;5034850;28;20523;-51
2023/01/25 04:30:57;;;;;;;18.27;11.48;;;6.90;47.40;;;;;;5035601;28;20206;-50
2023/01/25 04:33:24;;;;;;;15.02;10.93;;;6.90;47.30;;;;;;5035610;28;20189;-50
2023/01/25 04:35:50;;;;;;;20.60;12.00;;;6.90;47.50;;;;;;5035253;28;20237;-51
2023/01/25 04:38:16;;;;;;;17.85;11.55;;;6.90;47.50;;;;;;5035536;28;20220;-51
2023/01/25 04:40:42;;;;;;;21.90;13.27;;;6.80;47.30;;;;;;5035520;28;20174;-50
2023/01/25 04:43:09;;;;;;;16.63;10.60;;;6.90;47.40;;;;;;5035466;28;20200;-50
2023/01/25 04:45:35;;;;;;;19.45;12.20;;;6.90;47.30;;;;;;5035193;28;20186;-51
2023/01/25 04:48:08;;;;;;;21.00;11.40;;;6.90;47.30;;;;;;5035623;28;20181;-51
2023/01/25 04:50:36;;;;;;;22.40;11.70;;;6.80;47.20;;;;;;5035206;28;20199;-51
2023/01/25 04:53:01;;;;;;;15.82;10.55;;;6.80;47.30;;;;;;5035529;28;20174;-50
2023/01/25 04:55:27;;;;;;;14.30;9.50;;;6.80;47.40;;;;;;5035209;28;20259;-51
2023/01/25 04:57:53;;;;;;;16.27;11.40;;;6.80;47.30;;;;;;5035148;28;20439;-51
2023/01/25 05:00:19;;;;;;;16.80;12.00;;;6.80;47.30;;;;;;5035213;28;20412;-51
2023/01/25 05:02:45;;;;;;;16.30;9.90;;;6.80;47.30;;;;;;5034940;28;20190;-51
2023/01/25 05:05:12;;;;;;;19.17;10.48;;;6.80;47.20;;;;;;5034763;28;20182;-50
2023/01/25 05:07:38;;;;;;;20.20;9.57;;;6.70;47.30;;;;;;5035252;28;20193;-50
2023/01/25 05:10:05;;;;;;;14.27;10.13;;;6.80;47.40;;;;;;5034857;28;20174;-50
2023/01/25 05:12:31;;;;;;;16.65;11.73;;;6.80;47.40;;;;;;5034730;28;20697;-50
2023/01/25 05:14:57;;;;;;;17.00;9.10;;;6.80;47.40;;;;;;5034640;28;20174;-51
2023/01/25 05:17:23;;;;;;;18.83;10.70;;;6.80;47.50;;;;;;5034743;28;20202;-51
2023/01/25 05:19:48;;;;;;;19.60;12.27;;;6.80;47.40;;;;;;5034687;28;20174;-51
2023/01/25 05:22:16;;;;;;;16.87;11.07;;;6.80;47.30;;;;;;5034539;28;20213;-51
2023/01/25 05:24:43;;;;;;;17.30;11.93;;;6.80;47.40;;;;;;5034741;28;20232;-51
2023/01/25 05:27:11;;;;;;;15.93;9.73;;;6.80;47.30;;;;;;5034625;28;20173;-50
2023/01/25 05:29:42;;;;;;;19.50;11.93;;;6.70;47.30;;;;;;5034591;28;20177;-51
2023/01/25 05:32:13;;;;;;;16.58;9.52;;;6.80;47.30;;;;;;5034461;28;20277;-50
2023/01/25 05:34:40;;;;;;;21.33;10.90;;;6.80;47.30;;;;;;5034602;28;20297;-51
2023/01/25 05:37:07;;;;;;;19.45;11.55;;;6.70;47.20;;;;;;5034640;28;20206;-51
2023/01/25 05:39:33;;;;;;;21.38;11.95;;;6.70;47.30;;;;;;5033519;28;20169;-51
2023/01/25 05:41:59;;;;;;;16.63;12.00;;;6.70;47.30;;;;;;5034579;28;20205;-51
2023/01/25 05:44:25;;;;;;;18.70;11.87;;;6.70;47.30;;;;;;5034365;28;20637;-50
2023/01/25 05:46:51;;;;;;;20.08;11.43;;;6.70;47.40;;;;;;5034111;28;20918;-51
2023/01/25 05:49:17;;;;;;;19.43;11.33;;;6.70;47.30;;;;;;5034465;28;20182;-50
2023/01/25 05:51:44;;;;;;;17.98;11.90;;;6.70;47.40;;;;;;5034077;28;20342;-50
2023/01/25 05:54:13;;;;;;;20.77;12.10;;;6.70;47.60;;;;;;5034291;28;20198;-50
2023/01/25 05:56:39;;;;;;;21.88;12.23;;;6.70;47.50;;;;;;5033858;28;20212;-50
2023/01/25 05:59:05;;;;;;;21.43;11.50;;;6.70;47.30;;;;;;5034088;28;20261;-51
2023/01/25 06:01:31;;;;;;;21.93;12.20;;;6.70;47.30;;;;;;5034095;28;20994;-50
2023/01/25 06:03:56;;;;;;;23.23;13.13;;;6.70;47.30;;;;;;5034170;28;20228;-50
2023/01/25 06:06:22;;;;;;;21.53;11.50;;;6.70;47.00;;;;;;5033719;28;20182;-51
2023/01/25 06:08:48;;;;;;;20.20;11.63;;;6.70;47.20;;;;;;5033831;28;20184;-51
2023/01/25 06:11:17;;;;;;;20.25;11.25;;;6.70;47.20;;;;;;5033718;28;20281;-51
2023/01/25 06:13:44;;;;;;;16.88;11.55;;;6.70;47.30;;;;;;5033679;28;20209;-51
2023/01/25 06:16:10;;;;;;;22.92;12.40;;;6.60;48.00;;;;;;5033376;28;20312;-51
2023/01/25 06:18:36;;;;;;;20.23;11.47;;;6.60;47.40;;;;;;5033742;28;20255;-51
2023/01/25 06:21:03;;;;;;;18.20;10.90;;;6.70;47.40;;;;;;5033422;28;20969;-50
2023/01/25 06:23:28;;;;;;;15.52;10.25;;;6.70;47.40;;;;;;5033717;28;20216;-50
2023/01/25 06:26:03;;;;;;;16.70;10.77;;;6.70;47.30;;;;;;5033259;28;20592;-51
2023/01/25 06:28:30;;;;;;;17.30;12.10;;;6.70;47.30;;;;;;5033576;28;20436;-50
2023/01/25 06:31:02;;;;;;;16.13;10.80;;;6.70;47.30;;;;;;5033594;28;20201;-51
2023/01/25 06:33:27;;;;;;;16.90;10.80;;;6.70;47.30;;;;;;5033295;28;20580;-50
2023/01/25 06:35:57;;;;;;;14.80;9.83;;;6.70;47.30;;;;;;5032999;28;20213;-51
2023/01/25 06:38:23;;;;;;;15.82;10.10;;;6.70;47.10;;;;;;5033565;28;20166;-50
2023/01/25 06:40:49;;;;;;;17.77;10.10;;;6.70;47.30;;;;;;5033063;28;21575;-50
2023/01/25 06:43:14;;;;;;;18.33;11.00;;;6.70;47.30;;;;;;5032961;28;20304;-50
2023/01/25 06:45:40;;;;;;;18.93;10.00;;;6.70;47.20;;;;;;5032915;28;20637;-50
2023/01/25 06:48:06;;;;;;;16.83;9.63;;;6.60;46.60;;;;;;5033336;28;20174;-50
2023/01/25 06:50:32;;;;;;;18.43;10.43;;;6.60;46.60;;;;;;5032997;28;20511;-51
2023/01/25 06:52:57;;;;;;;20.07;11.63;;;6.60;46.80;;;;;;5033091;28;20170;-50
2023/01/25 06:55:23;;;;;;;14.83;10.87;;;6.60;47.10;;;;;;5032565;28;20181;-50
2023/01/25 06:57:49;;;;;;;17.05;11.35;;;6.60;47.20;;;;;;5032812;28;20591;-51
2023/01/25 07:00:15;;;;;;;21.80;12.93;;;6.70;47.20;;;;;;5032739;28;20198;-51
2023/01/25 07:02:41;;;;;;;16.25;10.75;;;6.70;47.20;;;;;;5033009;28;20273;-51
2023/01/25 07:05:08;;;;;;;22.97;11.37;;;6.70;47.20;;;;;;5032844;28;20205;-50
2023/01/25 07:07:34;;;;;;;16.08;10.85;;;6.70;47.30;;;;;;5032986;28;20408;-50
2023/01/25 07:10:00;;;;;;;15.63;11.75;;;6.70;47.20;;;;;;5032587;28;20239;-50
2023/01/25 07:12:29;;;;;;;17.45;10.80;;;6.70;47.10;;;;;;5032549;28;20270;-50
2023/01/25 07:14:55;;;;;;;19.13;12.70;;;6.70;47.20;;;;;;5032568;28;20185;-51
2023/01/25 07:17:21;;;;;;;20.80;11.00;;;6.70;47.10;;;;;;5032664;28;20202;-50
2023/01/25 07:19:47;;;;;;;20.30;11.33;;;6.70;47.20;;;;;;5032447;28;20423;-51
2023/01/25 07:22:12;;;;;;;17.07;11.10;;;6.70;46.90;;;;;;5032423;28;20297;-50
2023/01/25 07:24:38;;;;;;;20.53;11.97;;;6.70;46.90;;;;;;5032257;28;20542;-50
2023/01/25 07:27:04;;;;;;;21.83;11.90;;;6.70;46.60;;;;;;5032367;28;20244;-50
2023/01/25 07:29:30;;;;;;;19.27;11.40;;;6.70;46.50;;;;;;5032566;28;20174;-50
2023/01/25 07:31:55;;;;;;;19.57;11.40;;;6.70;46.90;;;;;;5032413;28;20201;-51
2023/01/25 07:34:21;;;;;;;18.00;10.13;;;6.70;47.00;;;;;;5032378;28;20408;-51
2023/01/25 07:36:47;;;;;;;23.27;13.07;;;6.70;46.90;;;;;;5032187;28;20549;-51
2023/01/25 07:39:13;;;;;;;18.80;11.70;;;6.70;46.60;;;;;;5032167;28;20177;-51
2023/01/25 07:41:39;;;;;;;23.38;12.80;;;6.70;46.80;;;;;;5032021;28;20548;-49
2023/01/25 07:44:05;;;;;;;18.23;11.48;;;6.70;46.50;;;;;;5032311;28;20178;-50
2023/01/25 07:46:31;;;;;;;17.58;10.45;;;6.60;46.30;;;;;;5031921;28;20170;-50
2023/01/25 07:49:00;;;;;;;15.60;11.13;;;6.60;46.50;;;;;;5032088;28;20232;-50
2023/01/25 07:51:26;;;;;;;19.10;11.55;;;6.60;46.70;;;;;;5032008;28;20430;-50
2023/01/25 07:53:57;;;;;;;19.55;12.23;;;6.50;46.80;;;;;;5031886;28;20178;-50
2023/01/25 07:56:26;;;;;;;19.77;11.82;;;6.50;47.10;;;;;;5031880;28;20197;-50
2023/01/25 07:58:53;;;;;;;20.85;11.10;;;6.60;47.10;;;;;;5031902;28;20170;-49
2023/01/25 08:01:20;;;;;;;20.88;12.05;;;6.60;46.90;;;;;;5032509;28;20193;-50
2023/01/25 08:03:47;;;;;;;18.75;11.52;;;6.60;46.90;;;;;;5038426;28;20197;-50
2023/01/25 08:06:13;;;;;;;17.77;12.57;;;6.60;46.70;;;;;;5038348;28;20170;-50
2023/01/25 08:08:41;;;;;;;18.02;11.15;;;6.60;46.70;;;;;;5038424;28;20178;-50
2023/01/25 08:11:17;;;;;;;18.25;11.55;;;6.60;46.80;;;;;;5038665;28;20197;-50
2023/01/25 08:13:45;;;;;;;16.85;11.25;;;6.60;46.90;;;;;;5038716;28;20173;-50
2023/01/25 08:16:19;;;;;;;16.55;11.30;;;6.60;46.80;;;;;;5038254;28;20251;-51
2023/01/25 08:18:49;;;;;;;18.92;11.88;;;6.60;46.80;;;;;;5038481;28;20186;-50
2023/01/25 08:21:16;;;;;;;16.85;11.48;;;6.60;46.70;;;;;;5038191;28;20260;-50
2023/01/25 08:23:41;;;;;;;18.33;11.38;;;6.60;46.70;;;;;;5038448;28;20177;-50
2023/01/25 08:26:10;;;;;;;13.37;8.90;;;6.70;46.60;;;;;;5038534;28;20169;-50
2023/01/25 08:28:36;;;;;;;17.75;13.32;;;6.60;46.50;;;;;;5038353;28;20169;-50
2023/01/25 08:31:12;;;;;;;15.33;10.27;;;6.60;46.60;;;;;;5038366;28;20197;-50
2023/01/25 08:33:38;;;;;;;17.23;11.93;;;6.60;46.70;;;;;;5038217;28;20182;-49
2023/01/25 08:36:07;;;;;;;18.48;13.10;;;6.60;46.90;;;;;;5038166;28;20214;-49
2023/01/25 08:38:33;;;;;;;15.98;10.85;;;6.60;46.70;;;;;;5038375;28;20170;-49
2023/01/25 08:41:14;;;;;;;15.40;11.87;;;6.60;46.70;;;;;;5038343;28;20217;-49
2023/01/25 08:43:41;;;;;;;16.60;12.00;;;6.60;46.70;;;;;;5038231;28;20773;-50
2023/01/25 08:46:07;;;;;;;16.45;11.73;;;6.60;46.70;;;;;;5037917;28;20689;-49
2023/01/25 08:48:33;;;;;;;17.73;12.35;;;6.50;46.70;;;;;;5038352;28;20576;-50
2023/01/25 08:51:00;;;;;;;18.58;12.45;;;6.40;46.70;;;;;;5038264;28;20286;-50
2023/01/25 08:53:32;;;;;;;13.98;9.57;;;6.40;47.10;;;;;;5038205;28;20224;-50
2023/01/25 08:56:08;;;;;;;11.82;9.82;;;6.50;47.30;;;;;;5037775;28;20240;-50
2023/01/25 08:58:40;;;;;;;17.00;11.80;;;6.50;47.30;;;;;;5038051;28;20204;-50
2023/01/25 09:01:07;;;;;;;21.30;13.00;;;6.60;47.20;;;;;;5038171;28;20194;-50
2023/01/25 09:03:45;;;;;;;19.90;12.70;;;6.60;47.10;;;;;;5038101;28;20174;-50
2023/01/25 09:06:11;;;;;;;19.70;11.05;;;6.70;47.20;;;;;;5037885;28;20182;-50
2023/01/25 09:08:37;;;;;;;16.40;11.00;;;6.80;47.20;;;;;;5037997;28;20182;-50
2023/01/25 09:11:12;;;;;;;20.40;11.57;;;6.80;47.10;;;;;;5037799;28;20193;-50
2023/01/25 09:13:42;;;;;;;21.17;12.60;;;6.90;47.10;;;;;;5035477;28;20188;-50
2023/01/25 09:16:12;;;;;;;18.15;11.65;;;6.90;46.90;;;;;;5034554;28;20728;-51
2023/01/25 09:18:40;;;;;;;17.55;11.18;;;6.90;46.90;;;;;;5034877;28;20170;-50
2023/01/25 09:21:15;;;;;;;16.10;11.50;;;7.00;46.70;;;;;;5034584;28;20218;-50
2023/01/25 09:23:43;;;;;;;24.45;13.93;;;7.00;46.80;;;;;;5034680;28;20174;-49
2023/01/25 09:26:10;;;;;;;19.08;13.57;;;7.00;46.70;;;;;;5034503;28;20213;-50
2023/01/25 09:28:36;;;;;;;21.80;13.93;;;7.00;46.70;;;;;;5034756;28;20185;-50
2023/01/25 09:31:04;;;;;;;18.63;12.17;;;7.00;46.50;;;;;;5034565;28;20190;-50
2023/01/25 09:33:35;;;;;;;18.60;12.18;;;7.00;46.10;;;;;;5034568;28;20174;-50
2023/01/25 09:36:01;;;;;;;16.33;12.52;;;7.00;46.50;;;;;;5034036;28;20206;-50
2023/01/25 09:38:27;;;;;;;17.63;11.67;;;7.00;46.40;;;;;;5034498;28;20522;-50
2023/01/25 09:40:55;;;;;;;19.92;13.10;;;7.00;46.20;;;;;;5034469;28;20519;-51
2023/01/25 09:43:41;;;;;;;22.83;14.55;;;7.00;46.50;;;;;;5034482;28;20550;-50
2023/01/25 09:46:39;;;;;;;14.95;11.68;;;7.00;46.60;;;;;;5032703;28;20186;-51
2023/01/25 09:49:36;;;;;;;23.90;13.85;;;7.00;46.10;;;;;;5034465;28;20182;-50
2023/01/25 09:52:21;;;;;;;23.38;13.40;;;7.00;46.50;;;;;;5034193;28;20229;-50
2023/01/25 09:54:47;;;;;;;18.30;13.63;;;7.00;46.80;;;;;;5033886;28;20212;-51
2023/01/25 09:57:26;;;;;;;16.85;11.77;;;6.90;46.50;;;;;;5034252;28;20289;-50
2023/01/25 09:59:53;;;;;;;15.50;11.77;;;6.90;46.30;;;;;;5034086;28;20668;-50
2023/01/25 10:02:33;;;;;;;21.90;13.38;;;6.80;46.30;;;;;;5034356;28;20188;-50
2023/01/25 10:05:13;;;;;;;16.20;10.23;;;6.80;46.60;;;;;;5033747;28;20236;-51
2023/01/25 10:08:20;;;;;;;17.13;12.15;;;6.90;46.80;;;;;;5034110;28;20186;-50
2023/01/25 10:10:51;;;;;;;18.75;12.02;;;6.90;46.80;;;;;;5033902;28;20235;-50
2023/01/25 10:13:22;;;;;;;21.20;12.23;;;7.00;46.90;;;;;;5033820;28;20209;-50
2023/01/25 10:16:20;;;;;;;14.82;11.38;;;7.00;46.70;;;;;;5033430;28;20206;-50
2023/01/25 10:18:52;;;;;;;20.23;13.07;;;7.10;46.80;;;;;;5032749;28;20178;-50
2023/01/25 10:21:20;;;;;;;22.85;12.32;;;7.10;46.60;;;;;;5033488;28;20224;-51
2023/01/25 10:24:23;;;;;;;18.85;11.50;;;7.10;46.50;;;;;;5033511;28;20232;-50
2023/01/25 10:26:55;;;;;;;21.17;14.45;;;7.10;46.40;;;;;;5033283;28;20182;-50
2023/01/25 10:29:27;;;;;;;20.88;11.55;;;7.10;46.50;;;;;;5033609;28;20182;-50
2023/01/25 10:32:01;;;;;;;19.77;12.18;;;7.00;46.20;;;;;;5033403;28;20288;-51
2023/01/25 10:34:37;;;;;;;20.88;13.10;;;7.00;46.10;;;;;;5032998;28;20710;-50
2023/01/25 10:37:11;;;;;;;22.20;11.80;;;6.90;46.00;;;;;;5033305;28;20697;-50
2023/01/25 10:39:50;;;;;;;19.38;12.27;;;6.80;45.80;;;;;;5033431;28;20181;-50
2023/01/25 10:42:17;;;;;;;18.05;10.48;;;6.70;46.00;;;;;;5033294;28;20328;-50
2023/01/25 10:44:43;;;;;;;18.98;12.40;;;6.70;46.50;;;;;;5032897;28;20199;-50
2023/01/25 10:47:24;;;;;;;18.47;11.40;;;6.60;46.70;;;;;;5033038;28;20589;-50
2023/01/25 10:49:55;;;;;;;23.67;13.90;;;6.70;46.70;;;;;;5033163;28;20181;-50
2023/01/25 10:52:22;;;;;;;20.73;12.50;;;6.70;46.80;;;;;;5033056;28;20201;-50
2023/01/25 10:55:13;;;;;;;18.20;12.20;;;6.70;46.40;;;;;;5032837;28;20304;-50
2023/01/25 10:57:48;;;;;;;18.02;11.45;;;6.80;46.50;;;;;;5031689;28;20216;-50
2023/01/25 11:00:30;;;;;;;19.77;10.93;;;6.70;46.40;;;;;;5033047;28;20180;-50
2023/01/25 11:02:57;;;;;;;17.50;12.27;;;6.80;46.40;;;;;;5032898;28;20178;-51
2023/01/25 11:05:33;;;;;;;16.33;10.95;;;6.80;46.50;;;;;;5032688;28;20174;-50
2023/01/25 11:08:19;;;;;;;14.60;9.80;;;6.90;46.50;;;;;;5032949;28;20201;-50
2023/01/25 11:10:45;;;;;;;16.27;11.38;;;7.00;46.30;;;;;;5032778;28;20174;-50
2023/01/25 11:13:14;;;;;;;16.80;11.27;;;7.00;46.50;;;;;;5032632;28;20174;-50
2023/01/25 11:15:45;;;;;;;19.20;10.55;;;7.00;46.10;;;;;;5032416;28;20173;-50
2023/01/25 11:18:23;;;;;;;15.55;11.15;;;7.00;46.00;;;;;;5032539;28;20178;-50
2023/01/25 11:21:11;;;;;;;14.27;10.57;;;6.90;45.50;;;;;;5032279;28;20252;-50
2023/01/25 11:23:37;;;;;;;17.40;9.95;;;6.80;45.60;;;;;;5032607;28;20523;-50
2023/01/25 11:26:18;;;;;;;13.83;9.70;;;6.80;45.80;;;;;;5032422;28;20711;-50
2023/01/25 11:28:49;;;;;;;15.30;10.40;;;6.70;45.80;;;;;;5032359;28;20500;-50
2023/01/25 11:31:21;;;;;;;14.88;9.18;;;6.70;45.80;;;;;;5032215;28;20236;-49
2023/01/25 11:33:47;;;;;;;15.25;9.43;;;6.70;45.30;;;;;;5032370;28;20224;-49
2023/01/25 11:36:21;;;;;;;16.17;9.45;;;6.70;45.60;;;;;;5031783;28;20201;-50
2023/01/25 11:39:22;;;;;;;13.35;9.13;;;6.60;45.40;;;;;;5032059;28;20174;-50
2023/01/25 11:42:14;;;;;;;12.63;8.68;;;6.60;45.40;;;;;;5030429;28;20561;-50
2023/01/25 11:44:45;;;;;;;13.32;7.55;;;6.60;45.10;;;;;;5031957;28;20178;-50
2023/01/25 11:47:37;;;;;;;11.73;8.57;;;6.50;45.20;;;;;;5032119;28;20166;-50
2023/01/25 11:50:20;;;;;;;13.55;10.10;;;6.50;45.50;;;;;;5032525;28;20281;-50
2023/01/25 11:53:28;;;;;;;13.20;9.10;;;6.50;45.80;;;;;;5032139;28;20212;-50
2023/01/25 11:56:09;;;;;;;17.65;11.15;;;6.50;45.80;;;;;;5031813;28;20204;-49
2023/01/25 11:59:02;;;;;;;11.38;9.05;;;6.50;45.60;;;;;;5032202;28;20170;-50
2023/01/25 12:01:53;;;;;;;15.23;10.13;;;6.50;45.40;;;;;;5032057;28;20194;-50
2023/01/25 12:04:40;;;;;;;16.20;9.90;;;6.50;45.80;;;;;;5031813;28;20577;-50
2023/01/25 12:07:21;;;;;;;13.10;9.98;;;6.50;45.90;;;;;;5031923;28;20576;-50
2023/01/25 12:10:20;;;;;;;15.90;9.90;;;6.50;45.70;;;;;;5032005;28;20231;-50
2023/01/25 12:12:55;;;;;;;14.73;9.10;;;6.50;45.80;;;;;;5031810;28;20189;-50
2023/01/25 12:15:41;;;;;;;16.38;10.55;;;6.50;46.70;;;;;;5031856;28;20205;-50
2023/01/25 12:18:28;;;;;;;14.25;8.77;;;6.50;45.90;;;;;;5031815;28;20200;-52
2023/01/25 12:20:53;;;;;;;15.50;9.27;;;6.60;45.80;;;;;;5031768;28;20608;-52
2023/01/25 12:23:34;;;;;;;12.70;10.63;;;6.60;45.60;;;;;;5031952;28;20174;-52
2023/01/25 12:26:09;;;;;;;15.05;10.32;;;6.60;45.60;;;;;;5031684;28;20174;-52
2023/01/25 12:28:43;;;;;;;13.77;9.63;;;6.60;45.60;;;;;;5031748;28;20637;-52
2023/01/25 12:31:25;;;;;;;14.80;9.68;;;6.70;45.70;;;;;;5031605;28;20197;-51
2023/01/25 12:33:59;;;;;;;12.13;8.13;;;6.70;45.20;;;;;;5031713;28;20189;-52
2023/01/25 12:36:34;;;;;;;14.23;9.10;;;6.70;45.20;;;;;;5031521;28;20259;-51
2023/01/25 12:39:16;;;;;;;13.82;9.00;;;6.70;45.50;;;;;;5031947;28;20165;-51
2023/01/25 12:41:50;;;;;;;11.65;7.85;;;6.80;44.80;;;;;;5031827;28;20216;-51
2023/01/25 12:44:24;;;;;;;10.93;8.85;;;6.80;45.20;;;;;;5031730;28;20199;-51
2023/01/25 12:47:08;;;;;;;11.27;8.02;;;6.80;45.20;;;;;;5031809;28;20252;-51
2023/01/25 12:49:49;;;;;;;12.30;8.38;;;6.90;45.40;;;;;;5034790;28;20166;-51
2023/01/25 12:52:31;;;;;;;10.52;7.88;;;6.90;45.10;;;;;;5035466;28;20205;-51
2023/01/25 12:55:01;;;;;;;24.45;9.88;;;6.90;44.70;;;;;;5035140;28;20181;-51